Snoqualmie River: Carnation station

back to: Snoqualmie river
Carnation station Summary - (NOAA Hydrograph: CRNW1)
flood stage: 54.0 ft
Latest reading:
Wed03/20 06:15 pm 46.87 ft 3458 cfs (+100/hr)
Past 24hr max:
Wed03/20 11:15 am 46.88 ft 3484 cfs
Forecasted crests: (published Wed 03/20/19 03:17 pm)
Thu03/21 05:00 am 47.07 ft 3990 cfs
Fri03/22 05:00 am 47.01 ft 3819 cfs
Sat03/23 05:00 pm 47.54 ft 5378 cfs
Tue03/26 05:00 pm 47.27 ft 4549 cfs
Thu03/28 05:00 am 47.02 ft 3846 cfs

Carnation station Details

Latest Readings

Last 100 Readings:
Wed03/20 06:15 pm 46.87 ft 3458 cfs
Wed03/20 06:00 pm 46.86 ft 3433 cfs
Wed03/20 05:45 pm 46.87 ft 3458 cfs
Wed03/20 05:30 pm 46.86 ft 3433 cfs
Wed03/20 05:15 pm 46.87 ft 3458 cfs
Wed03/20 05:00 pm 46.87 ft 3458 cfs
Wed03/20 04:45 pm 46.87 ft 3458 cfs
Wed03/20 04:30 pm 46.86 ft 3433 cfs
Wed03/20 04:15 pm 46.86 ft 3433 cfs
Wed03/20 04:00 pm 46.87 ft 3458 cfs
Wed03/20 03:45 pm 46.86 ft 3433 cfs
Wed03/20 03:30 pm 46.87 ft 3458 cfs
Wed03/20 03:15 pm 46.87 ft 3458 cfs
Wed03/20 03:00 pm 46.87 ft 3458 cfs
Wed03/20 02:45 pm 46.87 ft 3458 cfs
Wed03/20 02:30 pm 46.88 ft 3484 cfs
Wed03/20 02:15 pm 46.86 ft 3433 cfs
Wed03/20 02:00 pm 46.88 ft 3484 cfs
Wed03/20 01:45 pm 46.87 ft 3458 cfs
Wed03/20 01:30 pm 46.88 ft 3484 cfs
Wed03/20 01:15 pm 46.88 ft 3484 cfs
Wed03/20 01:00 pm 46.88 ft 3484 cfs
Wed03/20 12:45 pm 46.88 ft 3484 cfs
Wed03/20 12:30 pm 46.88 ft 3484 cfs
Wed03/20 12:15 pm 46.88 ft 3484 cfs
Wed03/20 12:00 pm 46.88 ft 3484 cfs
Wed03/20 11:45 am 46.88 ft 3484 cfs
Wed03/20 11:30 am 46.88 ft 3484 cfs
Wed03/20 11:15 am 46.88 ft 3484 cfs
Wed03/20 11:00 am 46.87 ft 3458 cfs
Wed03/20 10:45 am 46.87 ft 3458 cfs
Wed03/20 10:30 am 46.87 ft 3458 cfs
Wed03/20 10:15 am 46.87 ft 3458 cfs
Wed03/20 10:00 am 46.87 ft 3458 cfs
Wed03/20 09:45 am 46.87 ft 3458 cfs
Wed03/20 09:30 am 46.86 ft 3433 cfs
Wed03/20 09:15 am 46.85 ft 3407 cfs
Wed03/20 09:00 am 46.85 ft 3407 cfs
Wed03/20 08:45 am 46.86 ft 3433 cfs
Wed03/20 08:30 am 46.86 ft 3433 cfs
Wed03/20 08:15 am 46.86 ft 3433 cfs
Wed03/20 08:00 am 46.85 ft 3407 cfs
Wed03/20 07:45 am 46.84 ft 3382 cfs
Wed03/20 07:30 am 46.84 ft 3382 cfs
Wed03/20 07:15 am 46.83 ft 3357 cfs
Wed03/20 07:00 am 46.82 ft 3332 cfs
Wed03/20 06:45 am 46.82 ft 3332 cfs
Wed03/20 06:30 am 46.81 ft 3307 cfs
Wed03/20 06:15 am 46.81 ft 3307 cfs
Wed03/20 06:00 am 46.79 ft 3257 cfs
Wed03/20 05:45 am 46.8 ft 3282 cfs
Wed03/20 05:30 am 46.78 ft 3232 cfs
Wed03/20 05:15 am 46.78 ft 3232 cfs
Wed03/20 05:00 am 46.77 ft 3207 cfs
Wed03/20 04:45 am 46.77 ft 3207 cfs
Wed03/20 04:30 am 46.76 ft 3183 cfs
Wed03/20 04:15 am 46.75 ft 3158 cfs
Wed03/20 04:00 am 46.76 ft 3183 cfs
Wed03/20 03:45 am 46.75 ft 3158 cfs
Wed03/20 03:30 am 46.75 ft 3158 cfs
Wed03/20 03:15 am 46.74 ft 3134 cfs
Wed03/20 03:00 am 46.73 ft 3110 cfs
Wed03/20 02:45 am 46.72 ft 3085 cfs
Wed03/20 02:30 am 46.72 ft 3085 cfs
Wed03/20 02:15 am 46.71 ft 3061 cfs
Wed03/20 02:00 am 46.71 ft 3061 cfs
Wed03/20 01:45 am 46.7 ft 3037 cfs
Wed03/20 01:30 am 46.7 ft 3037 cfs
Wed03/20 01:15 am 46.69 ft 3013 cfs
Wed03/20 01:00 am 46.68 ft 2990 cfs
Wed03/20 12:45 am 46.68 ft 2990 cfs
Wed03/20 12:30 am 46.67 ft 2966 cfs
Wed03/20 12:15 am 46.67 ft 2966 cfs
Wed03/20 12:00 am 46.66 ft 2942 cfs
Tue03/19 11:45 pm 46.66 ft 2942 cfs
Tue03/19 11:30 pm 46.64 ft 2895 cfs
Tue03/19 11:15 pm 46.64 ft 2895 cfs
Tue03/19 11:00 pm 46.64 ft 2895 cfs
Tue03/19 10:45 pm 46.63 ft 2872 cfs
Tue03/19 10:30 pm 46.63 ft 2872 cfs
Tue03/19 10:15 pm 46.63 ft 2872 cfs
Tue03/19 10:00 pm 46.61 ft 2825 cfs
Tue03/19 09:45 pm 46.61 ft 2825 cfs
Tue03/19 09:30 pm 46.61 ft 2825 cfs
Tue03/19 09:15 pm 46.6 ft 2802 cfs
Tue03/19 09:00 pm 46.6 ft 2802 cfs
Tue03/19 08:45 pm 46.6 ft 2802 cfs
Tue03/19 08:30 pm 46.59 ft 2779 cfs
Tue03/19 08:15 pm 46.6 ft 2802 cfs
Tue03/19 08:00 pm 46.59 ft 2779 cfs
Tue03/19 07:45 pm 46.59 ft 2779 cfs
Tue03/19 07:30 pm 46.59 ft 2779 cfs
Tue03/19 07:15 pm 46.58 ft 2756 cfs
Tue03/19 07:00 pm 46.58 ft 2756 cfs
Tue03/19 06:45 pm 46.58 ft 2756 cfs
Tue03/19 06:30 pm 46.57 ft 2733 cfs
Tue03/19 06:15 pm 46.58 ft 2756 cfs
Tue03/19 06:00 pm 46.58 ft 2756 cfs
Tue03/19 05:45 pm 46.56 ft 2710 cfs
Tue03/19 05:30 pm 46.56 ft 2710 cfs

Latest Forecasts

Currently Forecasted Readings:
Wed03/20 05:00 pm 46.9 ft 3546 cfs
Wed03/20 11:00 pm 47.02 ft 3841 cfs
Thu03/21 05:00 am 47.07 ft 3990 cfs
Thu03/21 11:00 am 47.04 ft 3900 cfs
Thu03/21 05:00 pm 46.99 ft 3766 cfs
Thu03/21 11:00 pm 46.99 ft 3784 cfs
Fri03/22 05:00 am 47.01 ft 3819 cfs
Fri03/22 11:00 am 46.99 ft 3761 cfs
Fri03/22 05:00 pm 46.98 ft 3758 cfs
Fri03/22 11:00 pm 47.1 ft 4080 cfs
Sat03/23 05:00 am 47.35 ft 4779 cfs
Sat03/23 11:00 am 47.53 ft 5340 cfs
Sat03/23 05:00 pm 47.54 ft 5378 cfs
Sat03/23 11:00 pm 47.44 ft 5045 cfs
Sun03/24 05:00 am 47.29 ft 4610 cfs
Sun03/24 11:00 am 47.13 ft 4158 cfs
Sun03/24 05:00 pm 46.99 ft 3782 cfs
Sun03/24 11:00 pm 46.91 ft 3548 cfs
Mon03/25 05:00 am 46.85 ft 3412 cfs
Mon03/25 11:00 am 46.8 ft 3282 cfs
Mon03/25 05:00 pm 46.75 ft 3158 cfs
Mon03/25 11:00 pm 46.81 ft 3304 cfs
Tue03/26 05:00 am 47.05 ft 3919 cfs
Tue03/26 11:00 am 47.25 ft 4491 cfs
Tue03/26 05:00 pm 47.27 ft 4549 cfs
Tue03/26 11:00 pm 47.19 ft 4333 cfs
Wed03/27 05:00 am 47.1 ft 4064 cfs
Wed03/27 11:00 am 47.0 ft 3787 cfs
Wed03/27 05:00 pm 46.94 ft 3647 cfs
Wed03/27 11:00 pm 46.98 ft 3737 cfs
Thu03/28 05:00 am 47.02 ft 3846 cfs
Thu03/28 11:00 am 46.98 ft 3731 cfs
Thu03/28 05:00 pm 46.88 ft 3497 cfs
Thu03/28 11:00 pm 46.82 ft 3342 cfs
Fri03/29 05:00 am 46.79 ft 3262 cfs
Fri03/29 11:00 am 46.75 ft 3156 cfs
Fri03/29 05:00 pm 46.71 ft 3052 cfs
Fri03/29 11:00 pm 46.69 ft 3011 cfs
Sat03/30 05:00 am 46.69 ft 3021 cfs

Snoqualmie River flood gauge data supplied by the
National Weather Service Northwest River Forecast Center.

Sign up for Floodzilla alerts.